Time;durP1;ratioP1;P1;durP2;ratioP2;P2;SDS_P1;SDS_P2;PMS_P1;PMS_P2;Temp;Humidity;BMP_temperature;BMP_pressure;BME280_temperature;BME280_humidity;BME280_pressure;Samples;Min_cycle;Max_cycle;Signal;HPM_P1;HPM_P2
2023/12/28 00:01:23;;;;;;;10.57;2.38;;;;;;;6.09;100.00;97998.38;5084169;28;20052;-50
2023/12/28 00:03:50;;;;;;;6.43;1.27;;;;;;;6.10;100.00;98008.19;5083882;28;20059;-48
2023/12/28 00:06:18;;;;;;;3.70;1.17;;;;;;;6.10;100.00;98021.94;5083712;28;20514;-47
2023/12/28 00:08:45;;;;;;;6.55;1.23;;;;;;;6.11;100.00;98037.25;5086196;28;20048;-49
2023/12/28 00:11:26;;;;;;;8.65;4.15;;;;;;;6.15;100.00;98045.50;5082094;28;20056;-50
2023/12/28 00:13:53;;;;;;;5.80;1.10;;;;;;;6.19;100.00;98049.06;5082895;28;20052;-51
2023/12/28 00:16:21;;;;;;;6.65;1.48;;;;;;;6.25;100.00;98075.00;5084082;28;20494;-52
2023/12/28 00:18:48;;;;;;;9.00;1.10;;;;;;;6.28;100.00;98081.69;5085011;28;20071;-52
2023/12/28 00:21:16;;;;;;;2.55;1.10;;;;;;;6.28;100.00;98104.47;5082575;28;20075;-51
2023/12/28 00:23:43;;;;;;;7.03;1.30;;;;;;;6.26;100.00;98117.00;5095350;28;20052;-50
2023/12/28 00:26:10;;;;;;;2.22;1.13;;;;;;;6.24;100.00;98136.63;5088967;28;20056;-54
2023/12/28 00:28:37;;;;;;;3.55;1.13;;;;;;;6.26;100.00;98150.78;5085166;28;20724;-47
2023/12/28 00:31:05;;;;;;;15.45;4.78;;;;;;;6.25;100.00;98157.44;5080056;28;20044;-48
2023/12/28 00:33:32;;;;;;;7.97;1.95;;;;;;;6.26;100.00;98167.25;5084612;28;20056;-49
2023/12/28 00:36:00;;;;;;;7.90;0.70;;;;;;;6.25;100.00;98193.13;5086654;28;20032;-52
2023/12/28 00:38:28;;;;;;;3.10;0.93;;;;;;;6.24;100.00;98194.31;5088392;28;20043;-49
2023/12/28 00:40:55;;;;;;;0.70;0.40;;;;;;;6.23;100.00;98205.69;5070136;28;20044;-51
2023/12/28 00:43:22;;;;;;;3.30;1.75;;;;;;;6.23;100.00;98225.69;5088143;28;20533;-49
2023/12/28 00:45:50;;;;;;;3.97;0.90;;;;;;;6.23;100.00;98250.44;5088125;28;20036;-52
2023/12/28 00:48:17;;;;;;;3.45;1.52;;;;;;;6.23;100.00;98247.69;5087552;28;20066;-51
2023/12/28 00:50:45;;;;;;;9.00;2.75;;;;;;;6.21;100.00;98263.75;5087521;28;20051;-49
2023/12/28 00:53:12;;;;;;;9.05;1.60;;;;;;;6.16;100.00;98266.84;5087941;28;20048;-47
2023/12/28 00:55:39;;;;;;;10.85;1.33;;;;;;;6.12;100.00;98294.28;5086871;28;20528;-51
2023/12/28 00:58:06;;;;;;;8.85;2.40;;;;;;;6.10;100.00;98298.56;5070227;28;20409;-47
2023/12/28 01:00:34;;;;;;;6.43;1.30;;;;;;;6.06;100.00;98314.97;5087667;28;20501;-47
2023/12/28 01:03:02;;;;;;;3.08;0.70;;;;;;;6.06;100.00;98317.72;5059579;28;20067;-51
2023/12/28 01:05:29;;;;;;;6.10;0.60;;;;;;;6.05;100.00;98326.34;5076354;28;20075;-50
2023/12/28 01:07:59;;;;;;;7.15;1.33;;;;;;;6.09;100.00;98351.91;5071180;28;20041;-49
2023/12/28 01:10:27;;;;;;;9.10;2.50;;;;;;;6.10;100.00;98342.50;5067686;28;20056;-49
2023/12/28 01:12:54;;;;;;;5.53;0.82;;;;;;;6.06;100.00;98371.91;5066953;28;20394;-49
2023/12/28 01:15:21;;;;;;;5.30;1.08;;;;;;;6.06;100.00;98369.16;5067597;28;20052;-50
2023/12/28 01:17:49;;;;;;;4.70;1.42;;;;;;;6.10;100.00;98378.22;5066855;28;20391;-51
2023/12/28 01:20:16;;;;;;;4.75;0.80;;;;;;;6.13;100.00;98385.72;5066943;28;20059;-49
2023/12/28 01:22:44;;;;;;;3.17;0.77;;;;;;;6.14;100.00;98381.81;5066659;28;20406;-49
2023/12/28 01:25:11;;;;;;;8.77;1.00;;;;;;;6.14;100.00;98388.06;5072598;28;20490;-47
2023/12/28 01:27:39;;;;;;;8.13;1.80;;;;;;;6.12;100.00;98392.38;5067662;28;20052;-51
2023/12/28 01:30:07;;;;;;;5.53;1.10;;;;;;;6.11;100.00;98386.09;5067550;28;21637;-48
2023/12/28 01:32:35;;;;;;;2.83;1.50;;;;;;;6.11;100.00;98397.09;5066498;28;20051;-47
2023/12/28 01:35:02;;;;;;;7.45;1.60;;;;;;;6.09;100.00;98401.34;5067346;28;20049;-48
2023/12/28 01:37:31;;;;;;;8.75;1.05;;;;;;;6.09;100.00;98415.88;5078676;28;20045;-46
2023/12/28 01:40:00;;;;;;;6.30;0.88;;;;;;;6.08;100.00;98419.81;5066127;28;20475;-48
2023/12/28 01:42:30;;;;;;;5.45;1.02;;;;;;;6.10;100.00;98419.41;5067269;28;20048;-48
2023/12/28 01:44:57;;;;;;;11.23;1.27;;;;;;;6.12;100.00;98414.34;5066929;28;20044;-48
2023/12/28 01:47:26;;;;;;;5.65;1.27;;;;;;;6.14;100.00;98431.25;5054047;28;20052;-48
2023/12/28 01:49:54;;;;;;;7.78;1.20;;;;;;;6.16;100.00;98441.88;5067102;28;20045;-48
2023/12/28 01:52:21;;;;;;;9.10;0.93;;;;;;;6.19;100.00;98452.91;5067062;28;20498;-47
2023/12/28 01:54:49;;;;;;;7.22;1.58;;;;;;;6.23;100.00;98451.00;5066123;28;20064;-48
2023/12/28 01:57:18;;;;;;;6.90;1.33;;;;;;;6.28;100.00;98460.84;5067569;28;20072;-48
2023/12/28 01:59:45;;;;;;;12.98;1.30;;;;;;;6.32;100.00;98470.75;5063394;28;20055;-49
2023/12/28 02:02:15;;;;;;;4.78;1.00;;;;;;;6.34;100.00;98476.66;5081215;28;20157;-50
2023/12/28 02:04:43;;;;;;;5.80;1.30;;;;;;;6.39;100.00;98486.53;5055222;28;20048;-48
2023/12/28 02:07:11;;;;;;;6.43;1.60;;;;;;;6.41;100.00;98482.25;5086842;28;20051;-47
2023/12/28 02:09:39;;;;;;;7.45;1.35;;;;;;;6.47;100.00;98489.00;5086575;28;20044;-53
2023/12/28 02:12:07;;;;;;;9.30;1.55;;;;;;;6.51;100.00;98487.09;5086760;28;20047;-49
2023/12/28 02:14:34;;;;;;;6.40;1.08;;;;;;;6.53;100.00;98504.03;5087029;28;20040;-46
2023/12/28 02:17:14;;;;;;;10.15;1.45;;;;;;;6.54;100.00;98491.84;5076141;28;20075;-46
2023/12/28 02:19:51;;;;;;;8.82;1.77;;;;;;;6.53;100.00;98506.78;5086988;28;20709;-48
2023/12/28 02:22:18;;;;;;;12.60;1.30;;;;;;;6.51;100.00;98508.31;5068506;28;20040;-51
2023/12/28 02:24:55;;;;;;;5.80;1.20;;;;;;;6.48;100.00;98515.34;5086424;28;20409;-48
2023/12/28 02:27:22;;;;;;;6.57;1.08;;;;;;;6.47;100.00;98523.94;5086954;28;20048;-50
2023/12/28 02:29:49;;;;;;;9.93;1.85;;;;;;;6.46;100.00;98530.63;5087014;28;20521;-50
2023/12/28 02:32:23;;;;;;;7.80;1.17;;;;;;;6.46;100.00;98534.13;5071849;28;20044;-51
2023/12/28 02:34:57;;;;;;;10.13;1.27;;;;;;;6.46;100.00;98550.63;5088164;28;20044;-49
2023/12/28 02:37:25;;;;;;;2.17;0.77;;;;;;;6.47;100.00;98546.72;5094528;28;20048;-46
2023/12/28 02:39:53;;;;;;;4.38;0.82;;;;;;;6.47;100.00;98560.47;5086198;28;20043;-46
2023/12/28 02:42:21;;;;;;;8.52;1.20;;;;;;;6.49;100.00;98571.88;5086710;28;20043;-47
2023/12/28 02:44:50;;;;;;;3.85;0.75;;;;;;;6.51;100.00;98574.28;5086410;28;20509;-49
2023/12/28 02:47:17;;;;;;;3.42;0.77;;;;;;;6.50;100.00;98584.47;5085823;28;20048;-47
2023/12/28 02:49:44;;;;;;;9.07;1.70;;;;;;;6.48;100.00;98575.81;5086531;28;20044;-47
2023/12/28 02:52:12;;;;;;;6.32;1.23;;;;;;;6.48;100.00;98562.06;5087495;28;20048;-49
2023/12/28 02:54:39;;;;;;;10.07;1.33;;;;;;;6.50;100.00;98586.44;5090241;28;20047;-46
2023/12/28 02:57:07;;;;;;;10.88;1.42;;;;;;;6.53;100.00;98588.44;5088983;28;20545;-49
2023/12/28 02:59:34;;;;;;;8.77;1.55;;;;;;;6.53;100.00;98585.69;5089638;28;20048;-45
2023/12/28 03:02:01;;;;;;;6.20;1.40;;;;;;;6.53;100.00;98591.97;5186848;22;20044;-54
2023/12/28 03:04:28;;;;;;;10.85;2.08;;;;;;;6.57;100.00;98583.75;5089993;28;20052;-49
2023/12/28 03:06:56;;;;;;;9.13;1.98;;;;;;;6.59;100.00;98590.47;5081435;28;20040;-47
2023/12/28 03:09:23;;;;;;;5.85;1.08;;;;;;;6.63;100.00;98596.84;5081366;28;20731;-50
2023/12/28 03:11:51;;;;;;;7.05;0.82;;;;;;;6.66;100.00;98598.06;5087221;28;20040;-54
2023/12/28 03:14:18;;;;;;;13.00;2.58;;;;;;;6.68;100.00;98596.50;5090308;28;20051;-50
2023/12/28 03:16:45;;;;;;;8.13;1.00;;;;;;;6.70;100.00;98599.69;5082599;28;20053;-52
2023/12/28 03:19:13;;;;;;;10.00;1.75;;;;;;;6.69;100.00;98587.13;5089709;28;20044;-52
2023/12/28 03:21:40;;;;;;;10.27;2.65;;;;;;;6.68;100.00;98582.75;5082212;28;20055;-54
2023/12/28 03:24:08;;;;;;;13.55;1.60;;;;;;;6.68;100.00;98576.47;5086138;28;20043;-54
2023/12/28 03:26:38;;;;;;;10.43;2.10;;;;;;;6.66;100.00;98593.34;5091245;28;20058;-50
2023/12/28 03:29:08;;;;;;;;;;;;;;;6.65;100.00;98580.75;5077961;28;20131;-51
2023/12/28 03:31:39;;;;;;;33.55;3.63;;;;;;;6.62;100.00;98578.75;5085355;28;20361;-47
2023/12/28 03:34:07;;;;;;;16.27;2.00;;;;;;;6.62;100.00;98583.44;5088076;28;20052;-48
2023/12/28 03:36:34;;;;;;;4.20;1.55;;;;;;;6.63;100.00;98576.78;5090063;28;20048;-50
2023/12/28 03:39:03;;;;;;;8.65;1.35;;;;;;;6.65;100.00;98578.00;5090603;28;20051;-49
2023/12/28 03:41:30;;;;;;;10.40;1.48;;;;;;;6.66;100.00;98579.59;5072767;28;20110;-54
2023/12/28 03:43:58;;;;;;;8.18;1.38;;;;;;;6.69;100.00;98587.13;5090240;28;20067;-51
2023/12/28 03:46:26;;;;;;;10.85;2.00;;;;;;;6.70;100.00;98599.69;5078430;28;20382;-51
2023/12/28 03:48:53;;;;;;;9.30;2.30;;;;;;;6.76;100.00;98594.66;5089354;28;20040;-53
2023/12/28 03:51:21;;;;;;;8.45;1.50;;;;;;;6.78;100.00;98595.06;5088557;28;20413;-50
2023/12/28 03:53:48;;;;;;;11.98;2.00;;;;;;;6.79;100.00;98571.13;5076113;28;20054;-54
2023/12/28 03:56:26;;;;;;;7.45;1.50;;;;;;;6.79;100.00;98577.41;5090234;28;20047;-51
2023/12/28 03:58:54;;;;;;;8.70;1.70;;;;;;;6.78;100.00;98578.56;5089780;28;20052;-48
2023/12/28 04:01:22;;;;;;;11.23;2.20;;;;;;;6.78;100.00;98600.56;5089657;28;20436;-52
2023/12/28 04:03:49;;;;;;;8.25;2.00;;;;;;;6.79;100.00;98590.38;5088970;28;20063;-50
2023/12/28 04:06:17;;;;;;;14.57;3.08;;;;;;;6.81;100.00;98594.31;5089353;28;20493;-48
2023/12/28 04:08:44;;;;;;;11.85;2.22;;;;;;;6.83;100.00;98602.22;5076595;28;20044;-52
2023/12/28 04:11:12;;;;;;;5.82;1.98;;;;;;;6.84;100.00;98614.78;5089532;28;20039;-50
2023/12/28 04:13:39;;;;;;;5.00;1.85;;;;;;;6.86;100.00;98607.75;5089028;28;20044;-52
2023/12/28 04:16:07;;;;;;;9.88;1.27;;;;;;;6.88;100.00;98604.66;5089389;28;20123;-54
2023/12/28 04:18:34;;;;;;;5.03;1.38;;;;;;;6.89;100.00;98592.47;5089009;28;20044;-51
2023/12/28 04:21:02;;;;;;;8.57;2.30;;;;;;;6.90;100.00;98588.56;5085085;28;20036;-50
2023/12/28 04:23:29;;;;;;;5.97;1.65;;;;;;;6.90;100.00;98602.31;5085537;28;20497;-51
2023/12/28 04:25:58;;;;;;;8.93;1.83;;;;;;;6.89;100.00;98611.72;5089027;28;20055;-50
2023/12/28 04:28:25;;;;;;;7.25;1.33;;;;;;;6.90;100.00;98610.56;5085995;28;20056;-51
2023/12/28 04:30:53;;;;;;;7.72;1.45;;;;;;;6.90;100.00;98602.31;5089405;28;20043;-52
2023/12/28 04:33:20;;;;;;;10.75;1.23;;;;;;;6.90;100.00;98591.31;5082997;28;20047;-47
2023/12/28 04:35:47;;;;;;;12.60;2.20;;;;;;;6.90;100.00;98586.59;5089245;28;20055;-50
2023/12/28 04:38:16;;;;;;;10.38;1.65;;;;;;;6.90;100.00;98600.34;5089491;28;20707;-51
2023/12/28 04:40:43;;;;;;;16.33;2.65;;;;;;;6.88;100.00;98607.41;5088557;28;20040;-51
2023/12/28 04:43:10;;;;;;;12.07;1.70;;;;;;;6.90;100.00;98599.56;5080806;28;20055;-49
2023/12/28 04:45:38;;;;;;;10.15;2.63;;;;;;;6.91;100.00;98603.91;5089223;28;20055;-50
2023/12/28 04:48:05;;;;;;;14.60;2.45;;;;;;;6.91;100.00;98615.66;5089913;28;20048;-54
2023/12/28 04:50:33;;;;;;;8.55;1.88;;;;;;;6.94;100.00;98600.38;5088782;28;20044;-51
2023/12/28 04:53:03;;;;;;;16.88;2.33;;;;;;;6.95;100.00;98599.22;5086852;28;20161;-49
2023/12/28 04:55:30;;;;;;;11.57;2.40;;;;;;;6.95;100.00;98601.97;5084351;28;20052;-47
2023/12/28 04:57:57;;;;;;;18.48;3.35;;;;;;;6.95;100.00;98615.72;5088778;28;20063;-50
2023/12/28 05:00:25;;;;;;;12.60;3.28;;;;;;;6.95;100.00;98621.22;5084013;28;20382;-50
2023/12/28 05:02:52;;;;;;;11.63;3.50;;;;;;;6.95;100.00;98604.72;5088380;28;20401;-49
2023/12/28 05:05:21;;;;;;;10.70;2.53;;;;;;;6.97;100.00;98613.38;5081069;28;20043;-52
2023/12/28 05:07:49;;;;;;;21.27;2.97;;;;;;;6.98;100.00;98621.28;5082976;28;20040;-54
2023/12/28 05:10:16;;;;;;;15.80;2.47;;;;;;;6.98;100.00;98626.00;5086726;28;20400;-50
2023/12/28 05:12:45;;;;;;;13.55;2.60;;;;;;;6.98;100.00;98637.00;5086717;28;20052;-50
2023/12/28 05:15:13;;;;;;;18.55;5.18;;;;;;;7.00;100.00;98634.66;5087184;28;20051;-47
2023/12/28 05:17:41;;;;;;;22.75;3.22;;;;;;;7.03;100.00;98639.41;5088469;28;20108;-52
2023/12/28 05:20:08;;;;;;;15.73;2.42;;;;;;;7.03;100.00;98639.41;5088287;28;20051;-52
2023/12/28 05:22:36;;;;;;;13.80;3.67;;;;;;;7.05;100.00;98637.88;5084853;28;20489;-52
2023/12/28 05:25:04;;;;;;;26.13;2.55;;;;;;;7.06;100.00;98658.75;5086104;28;20044;-54
2023/12/28 05:27:32;;;;;;;16.95;3.10;;;;;;;7.09;100.00;98644.25;5084929;28;20044;-54
2023/12/28 05:29:59;;;;;;;23.73;4.60;;;;;;;7.10;100.00;98645.81;5078563;28;20405;-53
2023/12/28 05:32:26;;;;;;;9.95;2.60;;;;;;;7.10;100.00;98628.50;5087891;28;20067;-50
2023/12/28 05:34:54;;;;;;;12.77;2.58;;;;;;;7.06;100.00;98624.91;5088198;28;20048;-51
2023/12/28 05:37:21;;;;;;;8.38;2.35;;;;;;;7.02;100.00;98627.63;5087906;28;20044;-52
2023/12/28 05:39:49;;;;;;;14.05;3.60;;;;;;;6.99;100.00;98616.59;5078133;28;20056;-48
2023/12/28 05:42:16;;;;;;;11.73;2.42;;;;;;;6.95;100.00;98632.22;5085293;28;20040;-50
2023/12/28 05:44:44;;;;;;;10.30;2.17;;;;;;;6.89;100.00;98628.22;5088370;28;20054;-49
2023/12/28 05:47:13;;;;;;;12.10;2.50;;;;;;;6.84;100.00;98626.59;5088317;28;20055;-49
2023/12/28 05:49:40;;;;;;;19.42;2.95;;;;;;;6.82;100.00;98628.13;5087859;28;20048;-51
2023/12/28 05:52:07;;;;;;;14.35;3.00;;;;;;;6.77;100.00;98631.19;5083735;28;20060;-51
2023/12/28 05:54:35;;;;;;;17.13;2.08;;;;;;;6.74;100.00;98636.28;5063406;28;20032;-48
2023/12/28 05:57:03;;;;;;;13.50;2.00;;;;;;;6.70;100.00;98660.16;5087961;28;20048;-53
2023/12/28 05:59:30;;;;;;;13.20;2.05;;;;;;;6.68;100.00;98640.50;5088638;28;20047;-53
2023/12/28 06:01:59;;;;;;;7.88;1.83;;;;;;;6.66;100.00;98656.59;5087881;28;20869;-51
2023/12/28 06:04:26;;;;;;;12.57;1.65;;;;;;;6.64;100.00;98656.16;5086110;28;20055;-53
2023/12/28 06:06:54;;;;;;;13.82;1.95;;;;;;;6.61;100.00;98645.13;5088058;28;20055;-49
2023/12/28 06:09:21;;;;;;;14.02;2.78;;;;;;;6.59;100.00;98644.69;5086958;28;20044;-53
2023/12/28 06:11:49;;;;;;;14.65;2.65;;;;;;;6.56;100.00;98648.97;5074792;28;20048;-53
2023/12/28 06:14:16;;;;;;;15.10;2.53;;;;;;;6.54;100.00;98645.78;5087509;28;20044;-50
2023/12/28 06:16:43;;;;;;;14.75;2.40;;;;;;;6.53;100.00;98641.47;5080157;28;20049;-49
2023/12/28 06:19:12;;;;;;;14.25;2.08;;;;;;;6.54;100.00;98643.03;5056945;28;20052;-50
2023/12/28 06:21:42;;;;;;;12.63;2.42;;;;;;;6.52;100.00;98634.38;5075615;28;20048;-53
2023/12/28 06:24:09;;;;;;;6.57;2.88;;;;;;;6.51;100.00;98635.53;5081133;28;20040;-49
2023/12/28 06:26:44;;;;;;;8.98;2.35;;;;;;;6.51;100.00;98643.00;5085520;28;20055;-51
2023/12/28 06:29:11;;;;;;;9.35;1.83;;;;;;;6.51;100.00;98630.03;5092011;28;20493;-47
2023/12/28 06:31:39;;;;;;;3.63;1.52;;;;;;;6.49;100.00;98632.34;5090173;28;20401;-52
2023/12/28 06:34:07;;;;;;;12.45;1.42;;;;;;;6.49;100.00;98632.34;5091549;28;20052;-52
2023/12/28 06:36:35;;;;;;;14.15;2.03;;;;;;;6.48;100.00;98635.47;5091571;28;20051;-51
2023/12/28 06:39:03;;;;;;;11.00;1.70;;;;;;;6.46;100.00;98630.34;5091478;28;20715;-51
2023/12/28 06:41:30;;;;;;;6.65;1.85;;;;;;;6.46;100.00;98629.56;5091710;28;20056;-52
2023/12/28 06:43:58;;;;;;;6.00;1.98;;;;;;;6.43;100.00;98633.06;5092083;28;20468;-50
2023/12/28 06:46:25;;;;;;;4.03;1.38;;;;;;;6.41;100.00;98622.41;5090760;28;20054;-51
2023/12/28 06:48:52;;;;;;;6.38;1.73;;;;;;;6.40;100.00;98623.59;5085503;28;20051;-52
2023/12/28 06:51:21;;;;;;;13.25;2.58;;;;;;;6.38;100.00;98625.13;5065580;28;20544;-50
2023/12/28 06:53:50;;;;;;;10.02;2.65;;;;;;;6.38;100.00;98625.91;5084770;28;20052;-51
2023/12/28 06:56:18;;;;;;;14.07;2.03;;;;;;;6.38;100.00;98623.16;5091249;28;20070;-54
2023/12/28 06:58:46;;;;;;;9.98;1.88;;;;;;;6.38;100.00;98617.66;5084308;28;20041;-51
2023/12/28 07:01:13;;;;;;;7.53;1.95;;;;;;;6.37;100.00;98610.59;5084531;28;20060;-50
2023/12/28 07:03:41;;;;;;;10.63;2.28;;;;;;;6.38;100.00;98597.63;5090515;28;20044;-51
2023/12/28 07:06:08;;;;;;;8.55;1.33;;;;;;;6.37;100.00;98610.59;5090617;28;20054;-49
2023/12/28 07:08:36;;;;;;;9.20;1.38;;;;;;;6.35;100.00;98612.91;5091009;28;20044;-52
2023/12/28 07:11:04;;;;;;;17.63;2.28;;;;;;;6.35;100.00;98610.16;5087768;28;20408;-52
2023/12/28 07:13:32;;;;;;;6.72;1.48;;;;;;;6.35;100.00;98614.88;5091224;28;20056;-51
2023/12/28 07:16:00;;;;;;;3.95;1.10;;;;;;;6.35;100.00;98603.88;5082662;28;20044;-49
2023/12/28 07:18:28;;;;;;;7.85;1.30;;;;;;;6.34;100.00;98605.81;5090447;28;20044;-50
2023/12/28 07:20:56;;;;;;;8.60;2.33;;;;;;;6.33;100.00;98601.47;5085233;28;20044;-48
2023/12/28 07:23:24;;;;;;;5.50;1.13;;;;;;;6.31;100.00;98581.81;5090506;28;20062;-53
2023/12/28 07:25:51;;;;;;;6.85;1.13;;;;;;;6.33;100.00;98600.72;5090000;28;20037;-49
2023/12/28 07:28:20;;;;;;;2.55;0.70;;;;;;;6.34;100.00;98591.28;5089322;28;20569;-51
2023/12/28 07:30:48;;;;;;;6.78;1.10;;;;;;;6.34;100.00;98585.78;5084956;28;20683;-53
2023/12/28 07:33:15;;;;;;;2.38;0.95;;;;;;;6.34;100.00;98572.03;5089802;28;20048;-53
2023/12/28 07:35:43;;;;;;;6.63;0.95;;;;;;;6.36;100.00;98558.72;5079045;28;20051;-48
2023/12/28 07:38:10;;;;;;;6.80;1.63;;;;;;;6.39;100.00;98564.28;5081505;28;20041;-54
2023/12/28 07:40:37;;;;;;;8.60;1.08;;;;;;;6.41;100.00;98563.91;5085979;28;20046;-49
2023/12/28 07:43:05;;;;;;;8.70;1.63;;;;;;;6.44;100.00;98572.19;5085635;28;20064;-51
2023/12/28 07:45:32;;;;;;;4.03;1.05;;;;;;;6.48;100.00;98570.31;5086847;28;20048;-53
2023/12/28 07:48:00;;;;;;;9.55;1.50;;;;;;;6.51;100.00;98575.03;5086226;28;20496;-53
2023/12/28 07:50:28;;;;;;;13.05;3.03;;;;;;;6.55;100.00;98573.16;5084846;28;20406;-52
2023/12/28 07:52:55;;;;;;;5.85;1.38;;;;;;;6.56;100.00;98566.50;5085340;28;20036;-55
2023/12/28 07:55:22;;;;;;;4.35;0.90;;;;;;;6.61;100.00;98557.13;5088350;28;20052;-51
2023/12/28 07:57:50;;;;;;;7.53;2.38;;;;;;;6.65;100.00;98544.22;5084547;28;20033;-54
2023/12/28 08:00:17;;;;;;;7.82;1.45;;;;;;;6.69;100.00;98553.31;5087594;28;20040;-50
2023/12/28 08:02:45;;;;;;;4.32;1.33;;;;;;;6.70;100.00;98536.44;5088069;28;20059;-51
2023/12/28 08:05:12;;;;;;;7.85;1.30;;;;;;;6.73;100.00;98524.69;5088316;28;20055;-50
2023/12/28 08:07:40;;;;;;;10.27;2.00;;;;;;;6.73;100.00;98521.94;5088747;28;20055;-53
2023/12/28 08:10:07;;;;;;;7.15;1.25;;;;;;;6.77;100.00;98534.94;5088229;28;20394;-49
2023/12/28 08:12:35;;;;;;;7.78;2.20;;;;;;;6.78;100.00;98520.03;5057729;28;20052;-52
2023/12/28 08:15:02;;;;;;;7.28;1.10;;;;;;;6.83;100.00;98541.72;5087916;28;20048;-54
2023/12/28 08:17:30;;;;;;;6.78;1.50;;;;;;;6.87;100.00;98540.59;5089140;28;20378;-52
2023/12/28 08:19:57;;;;;;;5.40;0.90;;;;;;;6.90;100.00;98528.03;5083833;28;20058;-52
2023/12/28 08:22:25;;;;;;;10.48;1.70;;;;;;;6.92;100.00;98522.94;5088072;28;20052;-50
2023/12/28 08:24:52;;;;;;;4.18;1.75;;;;;;;6.92;100.00;98511.94;5068487;28;20044;-51
2023/12/28 08:27:19;;;;;;;5.47;1.65;;;;;;;6.92;100.00;98499.00;5083612;28;20521;-53
2023/12/28 08:29:48;;;;;;;8.52;1.17;;;;;;;6.94;100.00;98504.09;5087993;28;20058;-49
2023/12/28 08:32:17;;;;;;;8.93;1.80;;;;;;;6.95;100.00;98505.69;5069663;28;20044;-49
2023/12/28 08:34:46;;;;;;;10.13;1.65;;;;;;;6.95;100.00;98508.44;5085011;28;20406;-49
2023/12/28 08:37:13;;;;;;;6.93;1.50;;;;;;;6.98;100.00;98499.44;5084742;28;20062;-48
2023/12/28 08:39:41;;;;;;;9.15;1.73;;;;;;;6.99;100.00;98509.31;5080174;28;20036;-50
2023/12/28 08:42:08;;;;;;;10.23;2.75;;;;;;;7.00;100.00;98511.66;5084784;28;20548;-48
2023/12/28 08:44:36;;;;;;;7.18;1.42;;;;;;;7.03;100.00;98510.91;5077706;28;20048;-52
2023/12/28 08:47:04;;;;;;;8.07;1.55;;;;;;;7.05;100.00;98499.53;5082357;28;20044;-50
2023/12/28 08:49:33;;;;;;;13.63;2.40;;;;;;;7.08;100.00;98498.78;5086049;28;20036;-54
2023/12/28 08:52:00;;;;;;;6.32;1.50;;;;;;;7.09;100.00;98511.38;5084251;28;20489;-49
2023/12/28 08:54:29;;;;;;;4.13;1.15;;;;;;;7.14;100.00;98508.28;5087458;28;20054;-49
2023/12/28 08:56:56;;;;;;;8.90;1.25;;;;;;;7.19;100.00;98510.69;5085434;28;20047;-53
2023/12/28 08:59:26;;;;;;;8.60;1.50;;;;;;;7.25;100.00;98509.19;5086451;28;20136;-47
2023/12/28 09:01:54;;;;;;;11.65;1.67;;;;;;;7.30;100.00;98506.91;5067680;28;20055;-54
2023/12/28 09:04:22;;;;;;;12.80;1.48;;;;;;;7.38;100.00;98502.25;5086095;28;20044;-49
2023/12/28 09:06:50;;;;;;;9.02;1.50;;;;;;;7.46;100.00;98487.38;5079069;28;20040;-51
2023/12/28 09:09:18;;;;;;;5.43;1.25;;;;;;;7.51;100.00;98487.03;5082163;28;20048;-52
2023/12/28 09:11:46;;;;;;;14.73;3.22;;;;;;;7.53;100.00;98487.44;5087655;28;20047;-51
2023/12/28 09:14:13;;;;;;;5.07;1.80;;;;;;;7.59;100.00;98501.66;5067753;28;20055;-52
2023/12/28 09:16:42;;;;;;;8.98;2.40;;;;;;;7.63;100.00;98486.72;5076242;28;20786;-50
2023/12/28 09:19:09;;;;;;;11.88;2.08;;;;;;;7.69;100.00;98506.47;5074109;28;20049;-53
2023/12/28 09:21:37;;;;;;;9.25;1.88;;;;;;;7.74;100.00;98493.13;5078278;28;20049;-51
2023/12/28 09:24:05;;;;;;;5.35;1.27;;;;;;;7.83;100.00;98512.91;5070915;28;20082;-47
2023/12/28 09:26:33;;;;;;;9.27;2.03;;;;;;;7.90;100.00;98510.19;5087298;28;20532;-50
2023/12/28 09:29:00;;;;;;;9.30;2.63;;;;;;;7.93;100.00;98503.91;5087505;28;20052;-52
2023/12/28 09:31:28;;;;;;;12.63;2.42;;;;;;;7.97;100.00;98506.69;5069848;28;20059;-50
2023/12/28 09:33:55;;;;;;;12.52;1.92;;;;;;;7.94;100.00;98505.47;5068686;28;20040;-52
2023/12/28 09:36:23;;;;;;;16.90;3.33;;;;;;;7.91;100.00;98486.97;5087465;28;20044;-45
2023/12/28 09:38:51;;;;;;;13.95;3.38;;;;;;;7.86;100.00;98481.81;5077946;28;20044;-47
2023/12/28 09:41:25;;;;;;;10.20;2.08;;;;;;;7.83;100.00;98498.31;5078192;28;20044;-47
2023/12/28 09:44:10;;;;;;;8.90;1.77;;;;;;;7.81;100.00;98508.94;5086513;28;20047;-49
2023/12/28 09:46:42;;;;;;;11.52;2.42;;;;;;;7.80;100.00;98486.09;5084150;28;20063;-50
2023/12/28 09:49:10;;;;;;;13.77;2.40;;;;;;;7.81;100.00;98465.63;5086496;28;20056;-48
2023/12/28 09:51:38;;;;;;;11.05;2.45;;;;;;;7.82;100.00;98499.47;5080121;28;20044;-50
2023/12/28 09:54:06;;;;;;;8.57;1.70;;;;;;;7.85;100.00;98518.00;5085091;28;20514;-48
2023/12/28 09:56:34;;;;;;;5.55;1.13;;;;;;;7.85;100.00;98507.00;5068032;28;20513;-51
2023/12/28 09:59:03;;;;;;;9.00;1.65;;;;;;;7.85;100.00;98523.53;5086521;28;20071;-52
2023/12/28 10:01:31;;;;;;;4.60;1.48;;;;;;;7.82;100.00;98513.25;5087341;28;20067;-47
2023/12/28 10:03:59;;;;;;;4.80;0.85;;;;;;;7.80;100.00;98535.69;5084363;28;20051;-46
2023/12/28 10:06:26;;;;;;;6.25;1.80;;;;;;;7.79;100.00;98531.34;5072700;28;20044;-48
2023/12/28 10:08:55;;;;;;;4.82;0.90;;;;;;;7.77;100.00;98530.94;5088137;28;20040;-51
2023/12/28 10:11:23;;;;;;;1.25;0.55;;;;;;;7.75;100.00;98533.28;5085054;28;20059;-48
2023/12/28 10:13:51;;;;;;;1.90;0.47;;;;;;;7.73;100.00;98541.13;5090605;28;20051;-48
2023/12/28 10:16:18;;;;;;;3.53;1.10;;;;;;;7.73;100.00;98532.84;5086405;28;20054;-47
2023/12/28 10:18:45;;;;;;;1.02;0.57;;;;;;;7.73;100.00;98552.13;5089662;28;20052;-50
2023/12/28 10:21:13;;;;;;;1.35;0.50;;;;;;;7.70;100.00;98550.16;5090077;28;20509;-51
2023/12/28 10:23:41;;;;;;;2.42;0.60;;;;;;;7.68;100.00;98576.47;5070370;28;20051;-54
2023/12/28 10:26:08;;;;;;;1.65;0.50;;;;;;;7.67;100.00;98572.94;5090441;28;20055;-47
2023/12/28 10:28:39;;;;;;;2.45;0.77;;;;;;;7.66;100.00;98581.56;5080933;28;20051;-49
2023/12/28 10:31:08;;;;;;;1.58;0.30;;;;;;;7.62;100.00;98589.81;5089782;28;20032;-49
2023/12/28 10:33:38;;;;;;;3.47;0.80;;;;;;;7.61;100.00;98593.72;5071439;28;20044;-50
2023/12/28 10:36:08;;;;;;;1.38;0.52;;;;;;;7.59;100.00;98596.06;5088172;28;20521;-49
2023/12/28 10:38:37;;;;;;;2.65;0.70;;;;;;;7.57;100.00;98597.63;5087892;28;20048;-49
2023/12/28 10:41:08;;;;;;;3.20;0.50;;;;;;;7.57;100.00;98587.38;5089750;28;20484;-50
2023/12/28 10:44:05;;;;;;;1.52;0.40;;;;;;;7.57;100.00;98598.38;5084663;28;20039;-48
2023/12/28 10:46:43;;;;;;;4.03;0.50;;;;;;;7.55;100.00;98592.47;5082883;28;20450;-48
2023/12/28 10:49:16;;;;;;;1.38;0.73;;;;;;;7.56;100.00;98605.09;5080970;28;20048;-52
2023/12/28 10:51:50;;;;;;;2.67;0.80;;;;;;;7.57;100.00;98603.91;5082784;28;20075;-47
2023/12/28 10:54:32;;;;;;;2.55;0.75;;;;;;;7.59;100.00;98612.59;5078243;28;20048;-51
2023/12/28 10:57:13;;;;;;;0.98;0.28;;;;;;;7.61;100.00;98612.19;5087715;28;20843;-51
2023/12/28 10:59:59;;;;;;;4.22;0.75;;;;;;;7.62;100.00;98609.09;5085826;28;20047;-48
2023/12/28 11:02:32;;;;;;;1.55;0.88;;;;;;;7.66;100.00;98612.66;5077375;28;20048;-52
2023/12/28 11:05:01;;;;;;;4.55;1.10;;;;;;;7.71;100.00;98612.31;5087353;28;20596;-48
2023/12/28 11:07:32;;;;;;;6.80;0.85;;;;;;;7.83;100.00;98611.25;5089155;28;20055;-46
2023/12/28 11:10:01;;;;;;;6.18;1.10;;;;;;;7.91;100.00;98608.22;5083988;28;20496;-49
2023/12/28 11:12:29;;;;;;;9.25;0.93;;;;;;;7.97;100.00;98617.69;5084514;28;20048;-49
2023/12/28 11:14:57;;;;;;;4.05;0.75;;;;;;;8.07;100.00;98618.19;5070635;28;20044;-51
2023/12/28 11:17:25;;;;;;;0.57;0.40;;;;;;;8.14;100.00;98621.00;5089651;28;20056;-53
2023/12/28 11:19:54;;;;;;;3.50;0.80;;;;;;;8.21;99.96;98616.31;5075894;28;20052;-52
2023/12/28 11:22:23;;;;;;;3.60;0.50;;;;;;;8.27;99.89;98625.06;5087690;28;20044;-49
2023/12/28 11:24:53;;;;;;;2.28;1.20;;;;;;;8.29;99.58;98625.47;5084416;28;20052;-49
2023/12/28 11:27:23;;;;;;;1.73;0.55;;;;;;;8.32;99.49;98627.47;5084575;28;20079;-53
2023/12/28 11:29:52;;;;;;;4.22;1.13;;;;;;;8.33;99.65;98640.09;5089033;28;20047;-54
2023/12/28 11:32:19;;;;;;;6.30;1.33;;;;;;;8.32;99.58;98632.97;5088632;28;20054;-52
2023/12/28 11:34:57;;;;;;;4.40;1.08;;;;;;;8.26;99.40;98629.75;5087538;28;20052;-50
2023/12/28 11:37:26;;;;;;;3.35;1.17;;;;;;;8.26;99.38;98645.53;5083209;28;20056;-53